Sherwood Park, Canada
Current Conditions -  °F | °C
As of 10:00 PM on Monday 20 Oct 2014 (Local Time) from CYXD Reporting Station
Clear Clear  
Wind Chill: 52°   Ceiling: Unl
Heat Index: 52°   Visibility: 9mi
Dew Point: 37°   Wind: 0mph
Humidity: 58%   Direction: NA
Pressure: 29.47"   Gusts: NA
Location:  53.52°N, 113.32°W
Report Text: CYXD 210400Z AUTO 00000KT 9SM CLR 11/03 A2947 RMK SLP988
Loading
Personal Weather Stations






























Interactive Weather Map
Tropical Storm Tracking
New forecast layout! Learn more

10-Day Weather Forecast

Advertisements
Track Severe Weather on mobile